createdAt,value
2017-03-08T00:00:28.718Z,99.58
2017-03-08T00:01:10.293Z,99.58
2017-03-08T00:01:50.938Z,99.39
2017-03-08T00:02:32.499Z,99.86
2017-03-08T00:03:13.169Z,99.86
2017-03-08T00:03:53.824Z,99.86
2017-03-08T00:04:34.464Z,99.86
2017-03-08T00:05:15.116Z,99.86
2017-03-08T00:05:55.761Z,99.81
2017-03-08T00:06:36.519Z,99.86
2017-03-08T00:07:17.103Z,99.99
2017-03-08T00:07:57.727Z,99.99
2017-03-08T00:08:38.403Z,99.99
2017-03-08T00:09:19.046Z,99.33
2017-03-08T00:09:59.591Z,99.9
2017-03-08T00:10:40.244Z,99.24
2017-03-08T00:11:20.854Z,99.71
2017-03-08T00:12:01.442Z,99.33
2017-03-08T00:12:42.003Z,99.9
2017-03-08T00:13:22.633Z,99.99
2017-03-08T00:14:03.272Z,99.99
2017-03-08T00:14:43.840Z,99.81
2017-03-08T00:15:24.394Z,99.99
2017-03-08T00:16:05.057Z,99.9
2017-03-08T00:16:45.652Z,99.9
2017-03-08T00:17:26.240Z,99.33
2017-03-08T00:18:06.854Z,99.62
2017-03-08T00:18:47.505Z,99.71
2017-03-08T00:19:28.174Z,99.9
2017-03-08T00:20:08.835Z,99.71
2017-03-08T00:20:49.434Z,99.9
2017-03-08T00:21:30.072Z,99.9
2017-03-08T00:22:10.773Z,99.99
2017-03-08T00:22:51.406Z,99.81
2017-03-08T00:23:32.035Z,99.52
2017-03-08T00:24:12.731Z,99.9
2017-03-08T00:24:53.325Z,99.81
2017-03-08T00:25:33.901Z,99.71
2017-03-08T00:26:14.469Z,99.62
2017-03-08T00:26:55.032Z,99.81
2017-03-08T00:27:35.620Z,99.71
2017-03-08T00:28:16.225Z,99.71
2017-03-08T00:28:56.861Z,99.62
2017-03-08T00:29:37.525Z,99.71
2017-03-08T00:30:18.078Z,99.81
2017-03-08T00:30:58.717Z,99.71
2017-03-08T00:31:39.337Z,99.66
2017-03-08T00:32:19.912Z,99.57
2017-03-08T00:33:00.455Z,99.76
2017-03-08T00:33:41.121Z,99.66
2017-03-08T00:34:21.739Z,99.85
2017-03-08T00:35:02.301Z,99.99
2017-03-08T00:35:42.936Z,99.99
2017-03-08T00:36:23.504Z,99.99
2017-03-08T00:37:04.082Z,99.99
2017-03-08T00:37:44.734Z,99.99
2017-03-08T00:38:25.413Z,99.99
2017-03-08T00:39:06.071Z,99.99
2017-03-08T00:39:46.707Z,99.99
2017-03-08T00:40:27.326Z,99.99
2017-03-08T00:41:07.864Z,99.99
2017-03-08T00:41:48.453Z,99.99
2017-03-08T00:42:29.084Z,99.99
2017-03-08T00:43:09.628Z,99.99
2017-03-08T00:43:50.229Z,99.99
2017-03-08T00:44:30.781Z,99.99
2017-03-08T00:45:11.401Z,99.99
2017-03-08T00:45:52.046Z,99.99
2017-03-08T00:46:33.632Z,99.99
2017-03-08T00:47:14.336Z,99.99
2017-03-08T00:47:54.965Z,99.99
2017-03-08T00:48:35.588Z,99.99
2017-03-08T00:49:16.312Z,99.99
2017-03-08T00:49:56.919Z,99.99
2017-03-08T00:50:37.598Z,99.99
2017-03-08T00:51:19.222Z,99.99
2017-03-08T00:51:59.876Z,99.99
2017-03-08T00:52:40.554Z,99.99
2017-03-08T00:53:21.170Z,99.99
2017-03-08T00:54:01.819Z,99.99
2017-03-08T00:54:42.482Z,99.99
2017-03-08T00:55:23.185Z,99.99
2017-03-08T00:56:03.783Z,99.99
2017-03-08T00:56:44.369Z,99.99
2017-03-08T00:57:24.935Z,99.99
2017-03-08T00:58:05.555Z,99.99
2017-03-08T00:58:46.218Z,99.99
2017-03-08T00:59:26.844Z,99.99
2017-03-08T01:00:07.468Z,99.99
2017-03-08T01:00:48.034Z,99.99
2017-03-08T01:01:28.585Z,99.99
2017-03-08T01:02:09.154Z,99.99
2017-03-08T01:02:49.748Z,99.99
2017-03-08T01:03:30.365Z,99.99
2017-03-08T01:04:10.926Z,99.99
2017-03-08T01:04:51.577Z,99.99
2017-03-08T01:05:32.172Z,99.99
2017-03-08T01:06:12.812Z,99.99
2017-03-08T01:06:53.542Z,99.99
2017-03-08T01:07:34.161Z,99.99
2017-03-08T01:08:14.833Z,99.99
2017-03-08T01:08:55.478Z,99.99
2017-03-08T01:09:36.129Z,99.99
2017-03-08T01:10:16.681Z,99.99
2017-03-08T01:10:57.344Z,99.99
2017-03-08T01:11:37.999Z,99.99
2017-03-08T01:12:18.646Z,99.99
2017-03-08T01:12:59.288Z,99.99
2017-03-08T01:13:39.941Z,99.99
2017-03-08T01:14:20.587Z,99.99
2017-03-08T01:15:01.236Z,99.99
2017-03-08T01:15:41.793Z,99.99
2017-03-08T01:16:22.364Z,99.99
2017-03-08T01:17:02.997Z,99.99
2017-03-08T01:17:43.659Z,99.99
2017-03-08T01:18:24.215Z,99.99
2017-03-08T01:19:04.877Z,99.99
2017-03-08T01:19:45.530Z,99.99
2017-03-08T01:20:26.163Z,99.99
2017-03-08T01:21:06.816Z,99.99
2017-03-08T01:21:47.399Z,99.99
2017-03-08T01:22:28.020Z,99.99
2017-03-08T01:23:08.692Z,99.99
2017-03-08T01:23:50.253Z,99.99
2017-03-08T01:24:30.917Z,99.99
2017-03-08T01:25:11.461Z,99.99
2017-03-08T01:25:52.017Z,99.99
2017-03-08T01:26:32.656Z,99.99
2017-03-08T01:27:13.262Z,99.99
2017-03-08T01:27:53.864Z,99.99
2017-03-08T01:28:34.431Z,99.99
2017-03-08T01:29:15.067Z,99.99
2017-03-08T01:29:55.662Z,99.99
2017-03-08T01:30:36.301Z,99.99
2017-03-08T01:31:16.862Z,99.99
2017-03-08T01:31:57.465Z,99.99
2017-03-08T01:32:38.076Z,99.99
2017-03-08T01:33:18.670Z,99.99
2017-03-08T01:33:59.224Z,99.99
2017-03-08T01:34:39.799Z,99.99
2017-03-08T01:35:20.415Z,99.99
2017-03-08T01:36:01.043Z,99.99
2017-03-08T01:36:41.677Z,99.99
2017-03-08T01:37:22.340Z,99.99
2017-03-08T01:38:03.912Z,99.99
2017-03-08T01:38:44.568Z,99.99
2017-03-08T01:39:25.125Z,99.99
2017-03-08T01:40:05.781Z,99.99
2017-03-08T01:40:46.368Z,99.99
2017-03-08T01:41:26.943Z,99.99
2017-03-08T01:42:07.566Z,99.99
2017-03-08T01:42:48.182Z,99.99
2017-03-08T01:43:28.786Z,99.99
2017-03-08T01:44:09.351Z,99.99
2017-03-08T01:44:49.980Z,99.99
2017-03-08T01:45:30.593Z,99.99
2017-03-08T01:46:11.235Z,99.99
2017-03-08T01:46:51.842Z,99.99
2017-03-08T01:47:32.511Z,99.99
2017-03-08T01:48:13.148Z,99.99
2017-03-08T01:48:53.807Z,99.99
2017-03-08T01:49:34.456Z,99.99
2017-03-08T01:50:15.116Z,99.99
2017-03-08T01:50:55.764Z,99.99
2017-03-08T01:51:36.459Z,99.99
2017-03-08T01:52:17.082Z,99.99
2017-03-08T01:52:57.702Z,99.99
2017-03-08T01:53:38.365Z,99.99
2017-03-08T01:54:19.016Z,99.99
2017-03-08T01:54:59.665Z,99.99
2017-03-08T01:55:40.328Z,99.99
2017-03-08T01:56:20.985Z,99.99
2017-03-08T01:57:01.627Z,99.99
2017-03-08T01:57:42.283Z,99.99
2017-03-08T01:58:22.935Z,99.99
2017-03-08T01:59:03.587Z,99.99
2017-03-08T01:59:44.248Z,99.99
2017-03-08T02:00:24.809Z,99.99
2017-03-08T02:01:05.472Z,99.99
2017-03-08T02:01:46.112Z,99.99
2017-03-08T02:02:26.667Z,99.99
2017-03-08T02:03:07.335Z,99.99
2017-03-08T02:03:47.964Z,99.99
2017-03-08T02:04:28.506Z,99.99
2017-03-08T02:05:09.172Z,99.99
2017-03-08T02:05:49.814Z,99.99
2017-03-08T02:06:30.482Z,99.99
2017-03-08T02:07:11.125Z,99.99
2017-03-08T02:07:51.681Z,99.99
2017-03-08T02:08:32.333Z,99.99
2017-03-08T02:09:13.002Z,99.99
2017-03-08T02:09:53.636Z,99.99
2017-03-08T02:10:34.288Z,99.99
2017-03-08T02:11:14.868Z,99.99
2017-03-08T02:11:56.513Z,99.99
2017-03-08T02:12:37.157Z,99.99
2017-03-08T02:13:17.751Z,99.99
2017-03-08T02:13:58.380Z,99.99
2017-03-08T02:14:39.009Z,99.99
2017-03-08T02:15:19.568Z,99.99
2017-03-08T02:16:00.155Z,99.99
2017-03-08T02:16:40.721Z,99.99
2017-03-08T02:17:21.331Z,99.99
2017-03-08T02:18:01.908Z,99.99
2017-03-08T02:18:42.538Z,99.99
2017-03-08T02:19:23.145Z,99.99
2017-03-08T02:20:03.726Z,99.99
2017-03-08T02:20:44.393Z,99.99
2017-03-08T02:21:24.971Z,99.99
2017-03-08T02:22:05.600Z,99.99
2017-03-08T02:22:46.241Z,99.99
2017-03-08T02:23:26.889Z,99.99
2017-03-08T02:24:07.541Z,99.99
2017-03-08T02:24:48.204Z,99.99
2017-03-08T02:25:28.886Z,99.99
2017-03-08T02:26:09.500Z,99.99
2017-03-08T02:26:50.165Z,99.99
2017-03-08T02:27:30.813Z,99.99
2017-03-08T02:28:11.463Z,99.99
2017-03-08T02:28:52.124Z,99.99
2017-03-08T02:29:32.775Z,99.99
2017-03-08T02:30:13.415Z,99.99
2017-03-08T02:30:54.073Z,99.99
2017-03-08T02:31:34.747Z,99.99
2017-03-08T02:32:21.822Z,99.99
2017-03-08T02:33:02.442Z,99.99
2017-03-08T02:33:43.064Z,99.99
2017-03-08T02:34:23.716Z,99.99
2017-03-08T02:35:04.363Z,99.99
2017-03-08T02:35:45.042Z,99.99
2017-03-08T02:36:25.748Z,99.99
2017-03-08T02:37:06.291Z,99.99
2017-03-08T02:37:46.971Z,99.99
2017-03-08T02:38:27.556Z,99.99
2017-03-08T02:39:08.283Z,99.99
2017-03-08T02:39:48.803Z,99.99
2017-03-08T02:40:29.473Z,99.99
2017-03-08T02:41:10.175Z,99.99
2017-03-08T02:41:50.722Z,99.99
2017-03-08T02:42:31.394Z,99.99
2017-03-08T02:43:12.126Z,99.99
2017-03-08T02:43:52.679Z,99.99
2017-03-08T02:44:33.369Z,99.99
2017-03-08T02:45:13.992Z,99.99
2017-03-08T02:45:54.652Z,99.99
2017-03-08T02:46:35.185Z,99.99
2017-03-08T02:47:15.854Z,99.99
2017-03-08T02:47:56.546Z,99.99
2017-03-08T02:48:37.170Z,99.99
2017-03-08T02:49:17.906Z,99.99
2017-03-08T02:49:58.576Z,99.99
2017-03-08T02:50:39.234Z,99.99
2017-03-08T02:51:19.971Z,99.99
2017-03-08T02:52:00.632Z,99.99
2017-03-08T02:52:41.269Z,99.99
2017-03-08T02:53:21.922Z,99.99
2017-03-08T02:54:02.522Z,99.99
2017-03-08T02:54:43.134Z,99.99
2017-03-08T02:55:23.819Z,99.99
2017-03-08T02:56:04.439Z,99.99
2017-03-08T02:56:45.205Z,99.99
2017-03-08T02:57:25.765Z,99.99
2017-03-08T02:58:06.413Z,99.99
2017-03-08T02:58:47.186Z,99.99
2017-03-08T02:59:27.915Z,99.99
2017-03-08T03:00:08.463Z,99.99
2017-03-08T03:00:49.132Z,99.99
2017-03-08T03:01:29.819Z,99.99
2017-03-08T03:02:10.527Z,99.99
2017-03-08T03:02:51.093Z,99.99
2017-03-08T03:03:31.839Z,99.99
2017-03-08T03:04:12.532Z,99.99
2017-03-08T03:04:53.098Z,99.99
2017-03-08T03:05:33.623Z,99.99
2017-03-08T03:06:14.363Z,99.99
2017-03-08T03:06:55.103Z,99.99
2017-03-08T03:07:35.858Z,99.99
2017-03-08T03:08:16.511Z,99.99
2017-03-08T03:08:57.248Z,99.99
2017-03-08T03:09:37.912Z,99.99
2017-03-08T03:10:18.706Z,99.99
2017-03-08T03:10:59.371Z,99.99
2017-03-08T03:11:40.101Z,99.99
2017-03-08T03:12:20.659Z,99.99
2017-03-08T03:13:01.385Z,99.99
2017-03-08T03:13:41.984Z,99.99
2017-03-08T03:14:22.693Z,99.99
2017-03-08T03:15:03.242Z,99.99
2017-03-08T03:15:44.004Z,99.99
2017-03-08T03:16:24.780Z,99.99
2017-03-08T03:17:05.332Z,99.99
2017-03-08T03:17:46.083Z,99.99
2017-03-08T03:18:26.741Z,99.99
2017-03-08T03:19:07.364Z,99.99
2017-03-08T03:19:48.125Z,99.99
2017-03-08T03:20:28.874Z,99.99
2017-03-08T03:21:09.656Z,99.99
2017-03-08T03:21:50.384Z,99.99
2017-03-08T03:22:32.093Z,99.99
2017-03-08T03:23:12.836Z,99.99
2017-03-08T03:23:53.573Z,99.99
2017-03-08T03:24:34.236Z,99.99
2017-03-08T03:25:14.876Z,99.99
2017-03-08T03:25:55.592Z,99.99
2017-03-08T03:26:36.302Z,99.99
2017-03-08T03:27:16.970Z,99.99
2017-03-08T03:27:58.703Z,99.99
2017-03-08T03:28:39.417Z,99.99
2017-03-08T03:29:20.009Z,99.99
2017-03-08T03:30:00.592Z,99.99
2017-03-08T03:30:41.237Z,99.99
2017-03-08T03:31:21.903Z,99.99
2017-03-08T03:32:02.660Z,99.99
2017-03-08T03:32:43.395Z,99.99
2017-03-08T03:33:24.161Z,99.99
2017-03-08T03:34:04.906Z,99.99
2017-03-08T03:34:45.657Z,99.99
2017-03-08T03:35:26.436Z,99.99
2017-03-08T03:36:07.125Z,99.99
2017-03-08T03:36:47.923Z,99.99
2017-03-08T03:37:28.478Z,99.99
2017-03-08T03:38:09.252Z,99.99
2017-03-08T03:38:49.936Z,99.99
2017-03-08T03:39:30.619Z,99.99
2017-03-08T03:40:11.186Z,99.99
2017-03-08T03:40:51.845Z,99.99
2017-03-08T03:41:33.610Z,99.99
2017-03-08T03:42:14.176Z,99.99
2017-03-08T03:42:54.953Z,99.99
2017-03-08T03:43:35.515Z,99.99
2017-03-08T03:44:16.231Z,99.99
2017-03-08T03:44:56.874Z,99.99
2017-03-08T03:45:37.432Z,99.99
2017-03-08T03:46:18.194Z,99.99
2017-03-08T03:46:58.886Z,99.99
2017-03-08T03:47:39.590Z,99.99
2017-03-08T03:48:20.150Z,99.99
2017-03-08T03:49:00.908Z,99.99
2017-03-08T03:49:41.612Z,99.99
2017-03-08T03:50:22.304Z,99.99
2017-03-08T03:51:02.882Z,99.99
2017-03-08T03:51:43.635Z,99.99
2017-03-08T03:52:24.372Z,99.99
2017-03-08T03:53:05.154Z,99.99
2017-03-08T03:53:45.892Z,99.99
2017-03-08T03:54:26.644Z,99.99
2017-03-08T03:55:07.407Z,99.99
2017-03-08T03:55:47.978Z,99.99
2017-03-08T03:56:28.716Z,99.99
2017-03-08T03:57:09.468Z,99.99
2017-03-08T03:57:50.214Z,99.99
2017-03-08T03:58:30.971Z,99.99
2017-03-08T03:59:11.725Z,99.99
2017-03-08T03:59:52.488Z,99.99
2017-03-08T04:00:33.249Z,99.99
2017-03-08T04:01:13.977Z,99.99
2017-03-08T04:01:54.542Z,99.99
2017-03-08T04:02:35.317Z,99.99
2017-03-08T04:03:16.037Z,99.99
2017-03-08T04:03:56.600Z,99.99
2017-03-08T04:04:37.366Z,99.99
2017-03-08T04:05:18.114Z,99.99
2017-03-08T04:05:58.762Z,99.99
2017-03-08T04:06:39.548Z,99.99
2017-03-08T04:07:20.273Z,99.99
2017-03-08T04:08:01.033Z,99.99
2017-03-08T04:08:41.784Z,99.99
2017-03-08T04:09:23.565Z,99.99
2017-03-08T04:10:04.313Z,99.99
2017-03-08T04:10:44.918Z,99.99
2017-03-08T04:11:25.630Z,99.99
2017-03-08T04:12:06.393Z,99.99
2017-03-08T04:12:47.162Z,99.99
2017-03-08T04:13:27.799Z,99.99
2017-03-08T04:14:08.470Z,99.99
2017-03-08T04:14:49.222Z,99.99
2017-03-08T04:15:29.979Z,99.99
2017-03-08T04:16:10.726Z,99.99
2017-03-08T04:16:51.487Z,99.99
2017-03-08T04:17:32.131Z,99.99
2017-03-08T04:18:12.795Z,99.99
2017-03-08T04:18:53.448Z,99.99
2017-03-08T04:19:34.089Z,99.99
2017-03-08T04:20:14.754Z,99.99
2017-03-08T04:20:55.430Z,99.99
2017-03-08T04:21:36.039Z,99.99
2017-03-08T04:22:16.603Z,99.99
2017-03-08T04:22:57.254Z,99.99
2017-03-08T04:23:37.849Z,99.99
2017-03-08T04:24:18.444Z,99.99
2017-03-08T04:24:59.011Z,99.99
2017-03-08T04:25:39.664Z,99.99
2017-03-08T04:26:20.240Z,99.99
2017-03-08T04:27:01.878Z,99.99
2017-03-08T04:27:42.446Z,99.99
2017-03-08T04:28:23.079Z,99.99
2017-03-08T04:29:03.672Z,99.99
2017-03-08T04:29:44.271Z,99.99
2017-03-08T04:30:24.859Z,99.99
2017-03-08T04:31:05.510Z,99.99
2017-03-08T04:31:46.191Z,99.99
2017-03-08T04:32:26.785Z,99.99
2017-03-08T04:33:07.367Z,99.99
2017-03-08T04:33:47.993Z,99.99
2017-03-08T04:34:28.597Z,99.99
2017-03-08T04:35:09.195Z,99.99
2017-03-08T04:35:49.742Z,99.99
2017-03-08T04:36:30.424Z,99.99
2017-03-08T04:37:11.082Z,99.99
2017-03-08T04:37:51.713Z,99.99
2017-03-08T04:38:33.407Z,99.99
2017-03-08T04:39:14.034Z,99.99
2017-03-08T04:39:54.700Z,99.99
2017-03-08T04:40:35.360Z,99.99
2017-03-08T04:41:15.939Z,99.99
2017-03-08T04:41:56.541Z,99.99
2017-03-08T04:42:37.098Z,99.99
2017-03-08T04:43:17.745Z,99.99
2017-03-08T04:43:58.463Z,99.99
2017-03-08T04:44:39.050Z,99.99
2017-03-08T04:45:19.613Z,99.99
2017-03-08T04:46:00.258Z,99.99
2017-03-08T04:46:41.883Z,99.99
2017-03-08T04:47:22.480Z,99.99
2017-03-08T04:48:03.060Z,99.99
2017-03-08T04:48:43.685Z,99.99
2017-03-08T04:49:24.248Z,99.99
2017-03-08T04:50:04.892Z,99.99
2017-03-08T04:50:45.459Z,99.99
2017-03-08T04:51:27.150Z,99.99
2017-03-08T04:52:07.786Z,99.99
2017-03-08T04:52:48.441Z,99.99
2017-03-08T04:53:29.121Z,99.99
2017-03-08T04:54:09.727Z,99.99
2017-03-08T04:54:50.385Z,99.99
2017-03-08T04:55:32.093Z,99.99
2017-03-08T04:56:12.773Z,99.99
2017-03-08T04:56:53.370Z,99.99
2017-03-08T04:57:33.945Z,99.99
2017-03-08T04:58:14.583Z,99.99
2017-03-08T04:58:55.169Z,99.99
2017-03-08T04:59:35.769Z,99.99
2017-03-08T05:00:16.329Z,99.99
2017-03-08T05:00:57.003Z,99.99
2017-03-08T05:01:37.645Z,99.99
2017-03-08T05:02:18.294Z,99.99
2017-03-08T05:02:58.939Z,99.99
2017-03-08T05:03:39.616Z,99.99
2017-03-08T05:04:20.256Z,99.99
2017-03-08T05:05:00.916Z,99.99
2017-03-08T05:05:41.509Z,99.99
2017-03-08T05:06:22.158Z,99.99
2017-03-08T05:07:02.816Z,99.99
2017-03-08T05:07:43.463Z,99.99
2017-03-08T05:08:24.102Z,99.99
2017-03-08T05:09:04.769Z,99.99
2017-03-08T05:09:45.420Z,99.99
2017-03-08T05:10:26.093Z,99.99
2017-03-08T05:11:06.673Z,99.99
2017-03-08T05:11:47.221Z,99.99
2017-03-08T05:12:27.909Z,99.99
2017-03-08T05:13:08.582Z,99.99
2017-03-08T05:13:49.174Z,99.99
2017-03-08T05:14:29.746Z,99.99
2017-03-08T05:15:11.418Z,99.99
2017-03-08T05:15:52.015Z,99.99
2017-03-08T05:16:32.627Z,99.99
2017-03-08T05:17:13.259Z,99.99
2017-03-08T05:17:53.911Z,99.99
2017-03-08T05:18:34.573Z,99.99
2017-03-08T05:19:15.235Z,99.99
2017-03-08T05:19:55.882Z,99.99
2017-03-08T05:20:36.441Z,99.99
2017-03-08T05:21:17.096Z,99.99
2017-03-08T05:21:57.675Z,99.99
2017-03-08T05:22:38.289Z,99.99
2017-03-08T05:23:18.852Z,99.99
2017-03-08T05:23:59.497Z,99.99
2017-03-08T05:24:40.093Z,99.99
2017-03-08T05:25:20.632Z,99.99
2017-03-08T05:26:01.260Z,99.99
2017-03-08T05:26:41.950Z,99.99
2017-03-08T05:27:23.570Z,99.99
2017-03-08T05:28:04.142Z,99.99
2017-03-08T05:28:44.795Z,99.99
2017-03-08T05:29:25.374Z,99.99
2017-03-08T05:30:07.000Z,99.99
2017-03-08T05:30:47.606Z,99.99
2017-03-08T05:31:28.208Z,99.99
2017-03-08T05:32:08.856Z,99.99
2017-03-08T05:32:49.545Z,99.99
2017-03-08T05:33:30.206Z,99.99
2017-03-08T05:34:10.840Z,99.99
2017-03-08T05:34:51.497Z,99.99
2017-03-08T05:35:32.135Z,99.99
2017-03-08T05:36:12.786Z,99.99
2017-03-08T05:36:53.442Z,99.99
2017-03-08T05:37:34.094Z,99.99
2017-03-08T05:38:14.652Z,99.99
2017-03-08T05:38:55.313Z,99.99
2017-03-08T05:39:35.976Z,99.99
2017-03-08T05:40:16.617Z,99.99
2017-03-08T05:40:57.254Z,99.99
2017-03-08T05:41:38.248Z,99.99
2017-03-08T05:42:18.865Z,99.99
2017-03-08T05:42:59.425Z,99.99
2017-03-08T05:43:40.079Z,99.99
2017-03-08T05:44:20.667Z,99.99
2017-03-08T05:45:01.256Z,99.99
2017-03-08T05:45:41.816Z,99.99
2017-03-08T05:46:22.494Z,99.99
2017-03-08T05:47:03.115Z,99.99
2017-03-08T05:47:43.684Z,99.99
2017-03-08T05:48:24.353Z,99.99
2017-03-08T05:49:04.985Z,99.99
2017-03-08T05:49:45.542Z,99.99
2017-03-08T05:50:26.189Z,99.99
2017-03-08T05:51:06.757Z,99.99
2017-03-08T05:51:47.331Z,99.99
2017-03-08T05:52:27.945Z,99.99
2017-03-08T05:53:08.545Z,99.99
2017-03-08T05:53:49.141Z,99.99
2017-03-08T05:54:29.717Z,99.99
2017-03-08T05:55:10.348Z,99.99
2017-03-08T05:55:50.942Z,99.99
2017-03-08T05:56:32.575Z,99.99
2017-03-08T05:57:13.193Z,99.99
2017-03-08T05:57:53.776Z,99.99
2017-03-08T05:58:34.438Z,99.99
2017-03-08T05:59:15.055Z,99.99
2017-03-08T05:59:55.738Z,99.99
2017-03-08T06:00:36.313Z,99.99
2017-03-08T06:01:16.964Z,99.99
2017-03-08T06:01:57.545Z,99.99
2017-03-08T06:02:38.147Z,99.99
2017-03-08T06:03:18.715Z,99.99
2017-03-08T06:03:59.368Z,99.99
2017-03-08T06:04:39.973Z,99.99
2017-03-08T06:05:20.658Z,99.99
2017-03-08T06:06:01.291Z,99.99
2017-03-08T06:06:41.864Z,99.99
2017-03-08T06:07:22.517Z,99.99
2017-03-08T06:08:03.167Z,99.99
2017-03-08T06:08:43.836Z,99.99
2017-03-08T06:09:24.484Z,99.99
2017-03-08T06:10:05.145Z,99.99
2017-03-08T06:10:45.794Z,99.99
2017-03-08T06:11:26.411Z,99.99
2017-03-08T06:12:07.006Z,99.99
2017-03-08T06:12:47.624Z,99.99
2017-03-08T06:13:28.184Z,99.99
2017-03-08T06:14:08.873Z,99.99
2017-03-08T06:14:49.484Z,99.99
2017-03-08T06:15:30.070Z,99.99
2017-03-08T06:16:10.682Z,99.99
2017-03-08T06:16:51.333Z,99.99
2017-03-08T06:17:32.018Z,99.99
2017-03-08T06:18:12.677Z,99.99
2017-03-08T06:18:53.327Z,99.99
2017-03-08T06:19:33.980Z,99.99
2017-03-08T06:20:14.622Z,99.99
2017-03-08T06:20:55.276Z,99.99
2017-03-08T06:21:35.901Z,99.99
2017-03-08T06:22:16.474Z,99.99
2017-03-08T06:22:57.112Z,99.99
2017-03-08T06:23:37.766Z,99.99
2017-03-08T06:24:18.323Z,99.99
2017-03-08T06:24:58.987Z,99.99
2017-03-08T06:25:39.618Z,99.99
2017-03-08T06:26:20.186Z,99.99
2017-03-08T06:27:00.838Z,99.99
2017-03-08T06:27:41.377Z,99.99
2017-03-08T06:28:21.984Z,99.99
2017-03-08T06:29:02.526Z,99.99
2017-03-08T06:29:43.143Z,99.99
2017-03-08T06:30:23.691Z,99.99
2017-03-08T06:31:04.255Z,99.99
2017-03-08T06:31:44.894Z,99.99
2017-03-08T06:32:25.535Z,99.99
2017-03-08T06:33:06.093Z,99.99
2017-03-08T06:33:46.740Z,99.99
2017-03-08T06:34:27.402Z,99.99
2017-03-08T06:35:07.993Z,99.99
2017-03-08T06:35:48.605Z,99.99
2017-03-08T06:36:29.242Z,99.99
2017-03-08T06:37:09.807Z,99.99
2017-03-08T06:37:50.463Z,99.99
2017-03-08T06:38:31.058Z,99.99
2017-03-08T06:39:11.657Z,99.99
2017-03-08T06:39:52.249Z,99.99
2017-03-08T06:40:32.918Z,99.99
2017-03-08T06:41:13.500Z,99.99
2017-03-08T06:41:54.070Z,99.99
2017-03-08T06:42:34.732Z,99.99
2017-03-08T06:43:15.363Z,99.99
2017-03-08T06:43:55.921Z,99.99
2017-03-08T06:44:36.587Z,99.99
2017-03-08T06:45:17.229Z,99.99
2017-03-08T06:45:57.786Z,99.99
2017-03-08T06:46:38.455Z,99.99
2017-03-08T06:47:19.114Z,99.99
2017-03-08T06:47:59.775Z,99.99
2017-03-08T06:48:40.390Z,99.99
2017-03-08T06:49:21.038Z,99.99
2017-03-08T06:50:01.701Z,99.99
2017-03-08T06:50:42.342Z,99.99
2017-03-08T06:51:22.900Z,99.99
2017-03-08T06:52:03.559Z,99.99
2017-03-08T06:52:44.214Z,99.99
2017-03-08T06:53:24.870Z,99.99
2017-03-08T06:54:05.555Z,99.99
2017-03-08T06:54:46.183Z,99.99
2017-03-08T06:55:26.823Z,99.99
2017-03-08T06:56:07.414Z,99.99
2017-03-08T06:56:48.007Z,99.99
2017-03-08T06:57:28.615Z,99.99
2017-03-08T06:58:10.209Z,99.99
2017-03-08T06:58:50.795Z,99.99
2017-03-08T06:59:31.349Z,99.99
2017-03-08T07:00:12.023Z,99.99
2017-03-08T07:00:52.571Z,99.99
2017-03-08T07:01:33.150Z,99.99
2017-03-08T07:02:13.699Z,99.99
2017-03-08T07:02:55.360Z,99.99
2017-03-08T07:03:35.973Z,99.99
2017-03-08T07:04:16.573Z,99.99
2017-03-08T07:04:57.249Z,99.99
2017-03-08T07:05:37.853Z,99.99
2017-03-08T07:06:18.520Z,99.99
2017-03-08T07:06:59.177Z,99.99
2017-03-08T07:07:39.852Z,99.99
2017-03-08T07:08:21.543Z,99.99
2017-03-08T07:09:02.232Z,99.99
2017-03-08T07:09:43.010Z,99.99
2017-03-08T07:10:23.700Z,99.99
2017-03-08T07:11:04.364Z,99.99
2017-03-08T07:11:45.059Z,99.99
2017-03-08T07:12:25.839Z,99.99
2017-03-08T07:13:06.527Z,99.99
2017-03-08T07:13:47.151Z,99.99
2017-03-08T07:14:27.822Z,99.99
2017-03-08T07:15:09.485Z,99.99
2017-03-08T07:15:50.170Z,99.99
2017-03-08T07:16:30.783Z,99.99
2017-03-08T07:17:11.415Z,99.99
2017-03-08T07:17:52.079Z,99.99
2017-03-08T07:18:32.699Z,99.99
2017-03-08T07:19:13.292Z,99.99
2017-03-08T07:19:53.923Z,99.99
2017-03-08T07:20:34.550Z,99.99
2017-03-08T07:21:15.118Z,99.99
2017-03-08T07:21:55.801Z,99.99
2017-03-08T07:22:36.433Z,99.99
2017-03-08T07:23:16.968Z,99.99
2017-03-08T07:23:57.617Z,99.99
2017-03-08T07:24:38.266Z,99.99
2017-03-08T07:25:18.865Z,99.99
2017-03-08T07:25:59.480Z,99.99
2017-03-08T07:26:40.033Z,99.99
2017-03-08T07:27:20.713Z,99.99
2017-03-08T07:28:01.301Z,99.99
2017-03-08T07:28:42.907Z,99.99
2017-03-08T07:29:23.444Z,99.99
2017-03-08T07:30:04.045Z,99.99
2017-03-08T07:30:44.665Z,99.99
2017-03-08T07:31:25.310Z,99.99
2017-03-08T07:32:05.960Z,99.99
2017-03-08T07:32:46.628Z,99.99
2017-03-08T07:33:27.265Z,99.99
2017-03-08T07:34:07.929Z,99.99
2017-03-08T07:34:48.702Z,99.99
2017-03-08T07:35:29.346Z,99.99
2017-03-08T07:36:09.891Z,99.99
2017-03-08T07:36:50.577Z,99.99
2017-03-08T07:37:31.184Z,99.99
2017-03-08T07:38:11.732Z,99.99
2017-03-08T07:38:53.327Z,99.99
2017-03-08T07:39:33.968Z,99.99
2017-03-08T07:40:14.505Z,99.99
2017-03-08T07:40:55.184Z,99.99
2017-03-08T07:41:35.817Z,99.99
2017-03-08T07:42:16.469Z,99.99
2017-03-08T07:42:57.126Z,99.99
2017-03-08T07:43:37.776Z,99.99
2017-03-08T07:44:18.427Z,99.99
2017-03-08T07:44:58.990Z,99.99
2017-03-08T07:45:39.629Z,99.99
2017-03-08T07:46:20.299Z,99.99
2017-03-08T07:47:00.837Z,99.99
2017-03-08T07:47:41.500Z,99.99
2017-03-08T07:48:22.143Z,99.99
2017-03-08T07:49:02.840Z,99.99
2017-03-08T07:49:43.472Z,99.99
2017-03-08T07:50:24.105Z,99.99
2017-03-08T07:51:04.678Z,99.99
2017-03-08T07:51:45.322Z,99.99
2017-03-08T07:52:25.983Z,99.99
2017-03-08T07:53:06.641Z,99.99
2017-03-08T07:53:47.269Z,99.99
2017-03-08T07:54:27.960Z,99.99
2017-03-08T07:55:08.704Z,99.99
2017-03-08T07:55:49.358Z,99.99
2017-03-08T07:56:29.990Z,99.99
2017-03-08T07:57:10.655Z,99.99
2017-03-08T07:57:51.197Z,99.99
2017-03-08T07:58:31.841Z,99.99
2017-03-08T07:59:12.506Z,99.99
2017-03-08T07:59:53.055Z,99.99
2017-03-08T08:00:33.691Z,99.99
2017-03-08T08:01:14.307Z,99.99
2017-03-08T08:01:54.913Z,99.99
2017-03-08T08:02:35.454Z,99.99
2017-03-08T08:03:16.039Z,99.99
2017-03-08T08:03:56.690Z,99.99
2017-03-08T08:04:37.247Z,99.99
2017-03-08T08:05:17.886Z,99.99
2017-03-08T08:05:58.407Z,99.99
2017-03-08T08:06:39.111Z,99.99
2017-03-08T08:07:19.750Z,99.99
2017-03-08T08:08:00.410Z,99.99
2017-03-08T08:08:41.057Z,99.99
2017-03-08T08:09:21.684Z,99.99
2017-03-08T08:10:02.248Z,99.99
2017-03-08T08:10:43.999Z,99.99
2017-03-08T08:11:24.700Z,99.99
2017-03-08T08:12:05.316Z,99.99
2017-03-08T08:12:45.974Z,99.99
2017-03-08T08:13:26.693Z,99.99
2017-03-08T08:14:12.067Z,99.99
2017-03-08T08:14:52.809Z,99.99
2017-03-08T08:15:33.348Z,99.99
2017-03-08T08:16:14.039Z,99.99
2017-03-08T08:16:54.684Z,99.99
2017-03-08T08:17:37.385Z,99.99
2017-03-08T08:18:18.179Z,99.99
2017-03-08T08:18:58.939Z,99.99
2017-03-08T08:19:39.731Z,99.99
2017-03-08T08:20:20.385Z,99.99
2017-03-08T08:21:02.108Z,99.96
2017-03-08T08:21:42.720Z,99.99
2017-03-08T08:22:23.379Z,99.77
2017-03-08T08:23:04.055Z,99.99
2017-03-08T08:23:44.656Z,99.96
2017-03-08T08:24:25.385Z,99.77
2017-03-08T08:25:10.747Z,99.58
2017-03-08T08:25:51.411Z,99.99
2017-03-08T08:26:32.110Z,99.77
2017-03-08T08:27:12.791Z,99.58
2017-03-08T08:27:53.341Z,99.39
2017-03-08T08:28:33.990Z,99.11
2017-03-08T08:29:14.589Z,99.3
2017-03-08T08:29:55.188Z,99.3
2017-03-08T08:30:35.736Z,99.2
2017-03-08T08:31:16.304Z,99.01
2017-03-08T08:31:56.931Z,98.63
2017-03-08T08:32:37.494Z,98.73
2017-03-08T08:33:18.149Z,98.73
2017-03-08T08:33:58.701Z,99.01
2017-03-08T08:34:39.276Z,98.92
2017-03-08T08:35:19.911Z,98.44
2017-03-08T08:36:00.560Z,98.63
2017-03-08T08:36:41.206Z,98.63
2017-03-08T08:37:21.860Z,98.44
2017-03-08T08:38:02.519Z,98.44
2017-03-08T08:38:43.182Z,98.54
2017-03-08T08:39:23.822Z,98.16
2017-03-08T08:40:05.508Z,98.16
2017-03-08T08:40:46.139Z,98.44
2017-03-08T08:41:26.803Z,98.16
2017-03-08T08:42:07.455Z,98.16
2017-03-08T08:42:48.110Z,98.63
2017-03-08T08:43:28.756Z,98.44
2017-03-08T08:44:09.405Z,98.63
2017-03-08T08:44:50.069Z,97.78